createdAt,value
2022-08-22T00:00:45.537Z,90.90
2022-08-22T00:02:45.630Z,83.40
2022-08-22T00:02:54.635Z,87.50
2022-08-22T00:02:59.341Z,90.60
2022-08-22T00:03:27.892Z,91.10
2022-08-22T00:06:13.473Z,91.10
2022-08-22T00:08:52.219Z,91.20
2022-08-22T00:11:25.841Z,91.20
2022-08-22T00:14:04.541Z,91.30
2022-08-22T00:16:49.806Z,91.30
2022-08-22T00:19:31.805Z,91.40
2022-08-22T00:22:13.656Z,91.60
2022-08-22T00:24:40.400Z,91.50
2022-08-22T00:27:15.362Z,91.60
2022-08-22T00:29:51.909Z,91.70
2022-08-22T00:32:42.332Z,91.80
2022-08-22T00:35:25.039Z,91.80
2022-08-22T00:38:12.077Z,91.80
2022-08-22T00:40:57.697Z,91.80
2022-08-22T00:43:46.518Z,91.90
2022-08-22T00:46:50.970Z,92.00
2022-08-22T00:49:43.979Z,92.10
2022-08-22T00:52:22.358Z,92.30
2022-08-22T00:55:13.531Z,92.30
2022-08-22T00:57:59.225Z,92.40
2022-08-22T01:00:35.129Z,92.40
2022-08-22T01:03:21.746Z,92.60
2022-08-22T01:06:01.784Z,92.80
2022-08-22T01:09:14.601Z,92.90
2022-08-22T01:12:10.929Z,93.00
2022-08-22T01:14:44.361Z,93.10
2022-08-22T01:17:32.646Z,93.20
2022-08-22T01:20:18.227Z,93.30
2022-08-22T01:23:12.898Z,93.30
2022-08-22T01:25:58.342Z,93.30
2022-08-22T01:28:40.444Z,93.30
2022-08-22T01:31:34.833Z,93.30
2022-08-22T01:34:36.324Z,93.40
2022-08-22T01:37:33.487Z,93.50
2022-08-22T01:40:47.566Z,93.40
2022-08-22T01:43:43.837Z,93.40
2022-08-22T01:46:28.666Z,93.50
2022-08-22T01:49:12.969Z,93.60
2022-08-22T01:51:59.254Z,93.70
2022-08-22T01:54:35.813Z,93.70
2022-08-22T01:57:07.831Z,93.70
2022-08-22T01:59:46.978Z,93.90
2022-08-22T02:02:13.732Z,93.90
2022-08-22T02:04:52.721Z,94.00
2022-08-22T02:07:38.861Z,94.10
2022-08-22T02:10:21.167Z,94.10
2022-08-22T02:13:08.147Z,94.30
2022-08-22T02:15:41.026Z,94.50
2022-08-22T02:18:25.954Z,94.70
2022-08-22T02:21:09.399Z,94.90
2022-08-22T02:23:58.564Z,94.90
2022-08-22T02:26:50.025Z,95.00
2022-08-22T02:29:31.448Z,95.10
2022-08-22T02:32:21.638Z,95.10
2022-08-22T02:35:18.228Z,95.10
2022-08-22T02:38:22.664Z,95.30
2022-08-22T02:41:07.685Z,95.60
2022-08-22T02:43:42.314Z,95.90
2022-08-22T02:46:28.090Z,96.00
2022-08-22T02:48:58.066Z,96.20
2022-08-22T02:51:46.410Z,96.30
2022-08-22T02:54:56.272Z,96.50
2022-08-22T02:57:47.640Z,96.60
2022-08-22T03:00:30.922Z,96.70
2022-08-22T03:03:16.176Z,96.80
2022-08-22T03:05:45.694Z,97.00
2022-08-22T03:08:32.549Z,97.10
2022-08-22T03:11:05.238Z,97.10
2022-08-22T03:14:08.116Z,97.10
2022-08-22T03:16:46.170Z,97.10
2022-08-22T03:19:27.796Z,97.20
2022-08-22T03:21:57.884Z,97.20
2022-08-22T03:24:37.486Z,97.30
2022-08-22T03:27:14.225Z,97.60
2022-08-22T03:30:07.810Z,97.70
2022-08-22T03:32:56.401Z,97.80
2022-08-22T03:35:46.219Z,97.90
2022-08-22T03:38:44.866Z,98.00
2022-08-22T03:41:40.971Z,98.00
2022-08-22T03:44:14.518Z,98.20
2022-08-22T03:47:11.992Z,98.30
2022-08-22T03:49:41.656Z,98.40
2022-08-22T03:52:30.359Z,98.60
2022-08-22T03:55:12.285Z,98.60
2022-08-22T03:57:50.925Z,98.70
2022-08-22T04:00:36.373Z,98.90
2022-08-22T04:03:25.545Z,98.90
2022-08-22T04:06:11.511Z,99.00
2022-08-22T04:08:43.880Z,99.40
2022-08-22T04:11:23.984Z,99.70
2022-08-22T04:14:24.327Z,99.90
2022-08-22T04:16:57.175Z,99.90
2022-08-22T04:19:48.500Z,99.90
2022-08-22T04:22:49.661Z,99.90
2022-08-22T04:25:29.851Z,99.90
2022-08-22T04:28:16.486Z,99.90
2022-08-22T04:30:58.689Z,99.90
2022-08-22T04:33:45.434Z,99.90
2022-08-22T04:36:39.779Z,99.90
2022-08-22T04:39:27.900Z,99.90
2022-08-22T04:42:31.887Z,99.90
2022-08-22T04:45:42.264Z,99.90
2022-08-22T04:48:21.747Z,99.90
2022-08-22T04:51:03.321Z,99.90
2022-08-22T04:54:24.096Z,99.90
2022-08-22T04:57:09.564Z,99.90
2022-08-22T04:59:37.207Z,99.80
2022-08-22T05:02:09.379Z,99.10
2022-08-22T05:04:41.144Z,98.90
2022-08-22T05:07:19.465Z,98.90
2022-08-22T05:09:54.207Z,98.80
2022-08-22T05:12:49.599Z,98.50
2022-08-22T05:15:31.510Z,98.00
2022-08-22T05:18:09.378Z,97.90
2022-08-22T05:20:40.114Z,97.60
2022-08-22T05:23:19.528Z,97.60
2022-08-22T05:25:50.604Z,97.70
2022-08-22T05:28:22.749Z,97.40
2022-08-22T05:30:50.900Z,97.40
2022-08-22T05:33:40.791Z,97.40
2022-08-22T05:36:17.332Z,97.30
2022-08-22T05:39:06.831Z,97.20
2022-08-22T05:41:37.276Z,96.80
2022-08-22T05:44:07.362Z,96.60
2022-08-22T05:46:46.995Z,96.30
2022-08-22T05:49:36.586Z,96.10
2022-08-22T05:52:10.933Z,95.70
2022-08-22T05:54:56.996Z,95.70
2022-08-22T05:57:31.396Z,95.40
2022-08-22T06:00:22.217Z,95.00
2022-08-22T06:03:00.250Z,94.70
2022-08-22T06:05:30.671Z,94.50
2022-08-22T06:08:31.098Z,94.10
2022-08-22T06:11:05.883Z,93.50
2022-08-22T06:13:41.267Z,93.50
2022-08-22T06:16:21.066Z,93.30
2022-08-22T06:18:49.975Z,93.40
2022-08-22T06:21:38.544Z,93.30
2022-08-22T06:24:13.161Z,93.20
2022-08-22T06:26:46.070Z,93.00
2022-08-22T06:29:32.757Z,93.00
2022-08-22T06:32:09.321Z,92.70
2022-08-22T06:34:40.139Z,92.60
2022-08-22T06:37:16.906Z,92.50
2022-08-22T06:39:49.139Z,92.40
2022-08-22T06:42:31.152Z,92.20
2022-08-22T06:45:16.211Z,92.00
2022-08-22T06:47:49.831Z,92.00
2022-08-22T06:50:30.027Z,91.60
2022-08-22T06:53:47.809Z,91.40
2022-08-22T06:56:35.162Z,91.20
2022-08-22T06:59:06.546Z,91.10
2022-08-22T07:01:58.769Z,91.10
2022-08-22T07:04:27.237Z,91.10
2022-08-22T07:06:56.533Z,90.80
2022-08-22T07:09:31.717Z,90.60
2022-08-22T07:12:03.313Z,90.60
2022-08-22T07:14:40.922Z,90.60
2022-08-22T07:17:14.855Z,90.70
2022-08-22T07:20:08.035Z,90.80
2022-08-22T07:22:37.520Z,90.40
2022-08-22T07:25:12.634Z,90.30
2022-08-22T07:28:09.883Z,90.30
2022-08-22T07:30:57.686Z,90.20
2022-08-22T07:33:42.342Z,90.00
2022-08-22T07:36:22.980Z,89.90
2022-08-22T07:39:18.057Z,89.60
2022-08-22T07:42:11.321Z,88.90
2022-08-22T07:44:47.683Z,88.80
2022-08-22T07:47:17.969Z,88.70
2022-08-22T07:50:04.713Z,88.60
2022-08-22T07:52:41.300Z,88.50
2022-08-22T07:55:22.756Z,88.20
2022-08-22T07:58:03.868Z,88.20
2022-08-22T08:00:32.527Z,88.20
2022-08-22T08:03:04.627Z,88.10
2022-08-22T08:05:33.519Z,87.90
2022-08-22T08:08:05.399Z,87.70
2022-08-22T08:10:36.775Z,87.30
2022-08-22T08:13:11.620Z,87.00
2022-08-22T08:15:40.351Z,86.60
2022-08-22T08:18:19.339Z,85.40
2022-08-22T08:20:54.964Z,85.30
2022-08-22T08:23:23.553Z,85.50
2022-08-22T08:26:08.419Z,85.50
2022-08-22T08:28:43.014Z,85.20
2022-08-22T08:31:18.715Z,84.90
2022-08-22T08:33:48.659Z,84.30
2022-08-22T08:36:40.220Z,84.00
2022-08-22T08:39:25.202Z,84.10
2022-08-22T08:42:28.486Z,83.80
2022-08-22T08:45:04.826Z,82.60
2022-08-22T08:48:00.057Z,82.50
2022-08-22T08:50:38.284Z,81.80
2022-08-22T08:53:44.093Z,82.30
2022-08-22T08:56:22.961Z,81.70
2022-08-22T08:59:13.219Z,82.00
2022-08-22T09:02:05.430Z,81.30
2022-08-22T09:05:18.721Z,81.50
2022-08-22T09:08:14.298Z,80.70
2022-08-22T09:11:09.559Z,80.90
2022-08-22T09:13:48.057Z,78.60
2022-08-22T09:16:52.836Z,78.20
2022-08-22T09:20:17.703Z,77.30
2022-08-22T09:23:10.989Z,76.80
2022-08-22T09:26:02.329Z,77.30
2022-08-22T09:28:41.323Z,77.90
2022-08-22T09:31:44.925Z,76.50
2022-08-22T09:34:41.063Z,75.80
2022-08-22T09:37:15.195Z,73.70
2022-08-22T09:39:42.178Z,70.40
2022-08-22T09:42:44.912Z,70.80
2022-08-22T09:45:50.328Z,68.30
2022-08-22T09:48:48.725Z,67.60
2022-08-22T09:51:38.753Z,68.10
2022-08-22T09:54:19.439Z,68.20
2022-08-22T09:56:58.456Z,66.90
2022-08-22T09:59:28.372Z,66.20
2022-08-22T10:02:06.798Z,67.30
2022-08-22T10:04:44.758Z,68.10
2022-08-22T10:07:51.525Z,66.10
2022-08-22T10:10:31.506Z,64.90
2022-08-22T10:13:10.557Z,65.60
2022-08-22T10:15:47.762Z,64.60
2022-08-22T10:18:33.737Z,65.00
2022-08-22T10:21:15.716Z,64.30
2022-08-22T10:24:25.220Z,63.80
2022-08-22T10:27:03.332Z,63.90
2022-08-22T10:30:09.596Z,64.30
2022-08-22T10:32:47.148Z,64.10
2022-08-22T10:35:29.543Z,63.40
2022-08-22T10:38:15.255Z,63.60
2022-08-22T10:40:56.193Z,63.70
2022-08-22T10:43:44.798Z,63.10
2022-08-22T10:46:19.110Z,62.50
2022-08-22T10:48:51.952Z,62.90
2022-08-22T10:51:41.057Z,63.00
2022-08-22T10:54:50.631Z,62.40
2022-08-22T10:57:50.691Z,61.00
2022-08-22T11:00:50.507Z,61.40
2022-08-22T11:03:55.878Z,62.20
2022-08-22T11:06:28.332Z,62.20
2022-08-22T11:09:12.930Z,62.20
2022-08-22T11:11:56.177Z,61.90
2022-08-22T11:14:44.806Z,61.90
2022-08-22T11:17:54.103Z,60.70
2022-08-22T11:20:26.926Z,61.50
2022-08-22T11:23:21.407Z,61.10
2022-08-22T11:26:15.035Z,60.90
2022-08-22T11:29:07.828Z,61.10
2022-08-22T11:32:28.662Z,60.30
2022-08-22T11:35:00.146Z,60.40
2022-08-22T11:37:45.826Z,60.10
2022-08-22T11:40:57.478Z,60.70
2022-08-22T11:43:52.421Z,60.20
2022-08-22T11:46:39.527Z,60.00
2022-08-22T11:49:32.707Z,60.40
2022-08-22T11:51:59.886Z,60.60
2022-08-22T11:54:53.798Z,60.20
2022-08-22T11:57:35.119Z,60.50
2022-08-22T12:00:21.025Z,60.80
2022-08-22T12:03:19.182Z,60.30
2022-08-22T12:06:20.605Z,60.00
2022-08-22T12:08:49.572Z,60.20
2022-08-22T12:11:28.130Z,60.20
2022-08-22T12:14:06.116Z,60.10
2022-08-22T12:16:47.305Z,60.70
2022-08-22T12:19:32.708Z,60.10
2022-08-22T12:22:08.806Z,60.10
2022-08-22T12:24:41.830Z,60.00
2022-08-22T12:27:13.297Z,59.30
2022-08-22T12:30:02.130Z,58.20
2022-08-22T12:33:06.414Z,56.50
2022-08-22T12:35:42.164Z,57.30
2022-08-22T12:38:31.256Z,56.70
2022-08-22T12:41:28.279Z,57.70
2022-08-22T12:44:17.118Z,60.00
2022-08-22T12:47:05.831Z,58.50
2022-08-22T12:49:54.414Z,58.20
2022-08-22T12:52:33.333Z,58.70
2022-08-22T12:55:20.499Z,56.70
2022-08-22T12:57:54.921Z,56.30
2022-08-22T13:00:43.871Z,56.40
2022-08-22T13:03:23.451Z,57.60
2022-08-22T13:05:57.166Z,57.90
2022-08-22T13:08:39.178Z,56.40
2022-08-22T13:11:23.092Z,55.90
2022-08-22T13:13:57.297Z,57.20
2022-08-22T13:16:33.841Z,55.00
2022-08-22T13:19:28.654Z,55.10
2022-08-22T13:22:03.890Z,55.60
2022-08-22T13:24:41.233Z,53.90
2022-08-22T13:27:25.774Z,55.80
2022-08-22T13:30:00.682Z,53.80
2022-08-22T13:32:44.670Z,58.30
2022-08-22T13:35:45.621Z,60.00
2022-08-22T13:38:33.019Z,58.70
2022-08-22T13:41:02.069Z,58.00
2022-08-22T13:43:33.859Z,53.60
2022-08-22T13:46:04.802Z,55.20
2022-08-22T13:48:56.697Z,55.60
2022-08-22T13:51:40.166Z,55.70
2022-08-22T13:54:10.890Z,55.20
2022-08-22T13:57:02.380Z,55.50
2022-08-22T13:59:51.504Z,56.40
2022-08-22T14:02:25.669Z,56.00
2022-08-22T14:05:04.077Z,56.00
2022-08-22T14:07:43.270Z,57.80
2022-08-22T14:10:20.371Z,55.70
2022-08-22T14:12:55.790Z,53.70
2022-08-22T14:15:33.981Z,54.10
2022-08-22T14:18:13.060Z,54.80
2022-08-22T14:20:42.234Z,55.80
2022-08-22T14:23:29.404Z,53.60
2022-08-22T14:25:57.554Z,53.80
2022-08-22T14:28:29.427Z,52.80
2022-08-22T14:31:14.370Z,54.10
2022-08-22T14:33:49.731Z,52.40
2022-08-22T14:36:23.219Z,52.00
2022-08-22T14:39:23.266Z,51.40
2022-08-22T14:41:59.412Z,53.60
2022-08-22T14:45:06.554Z,54.20
2022-08-22T14:47:55.333Z,52.80
2022-08-22T14:50:50.643Z,52.00
2022-08-22T14:53:19.955Z,53.10
2022-08-22T14:56:14.949Z,54.00
2022-08-22T14:58:53.840Z,55.20
2022-08-22T15:01:25.028Z,56.20
2022-08-22T15:03:56.159Z,53.00
2022-08-22T15:06:37.016Z,54.30
2022-08-22T15:09:26.639Z,52.70
2022-08-22T15:11:53.540Z,54.40
2022-08-22T15:14:45.526Z,54.40
2022-08-22T15:17:44.137Z,52.30
2022-08-22T15:20:13.931Z,51.90
2022-08-22T15:22:45.462Z,50.80
2022-08-22T15:25:40.991Z,54.50
2022-08-22T15:28:14.494Z,53.40
2022-08-22T15:31:03.769Z,54.50
2022-08-22T15:33:39.044Z,50.50
2022-08-22T15:36:22.363Z,49.40
2022-08-22T15:39:16.488Z,50.30
2022-08-22T15:41:48.227Z,49.40
2022-08-22T15:44:31.122Z,48.90
2022-08-22T15:47:10.703Z,49.00
2022-08-22T15:49:50.641Z,47.90
2022-08-22T15:52:25.878Z,47.90
2022-08-22T15:54:57.095Z,48.10
2022-08-22T15:57:34.983Z,47.20
2022-08-22T16:00:30.380Z,50.50
2022-08-22T16:03:11.638Z,46.90
2022-08-22T16:05:54.977Z,46.30
2022-08-22T16:08:37.483Z,50.90
2022-08-22T16:11:04.229Z,47.70
2022-08-22T16:13:31.149Z,48.10
2022-08-22T16:16:07.468Z,50.80
2022-08-22T16:18:34.353Z,49.90
2022-08-22T16:21:02.595Z,51.00
2022-08-22T16:23:50.013Z,50.50
2022-08-22T16:26:38.431Z,51.10
2022-08-22T16:29:17.319Z,49.60
2022-08-22T16:31:44.960Z,47.80
2022-08-22T16:34:17.779Z,49.40
2022-08-22T16:36:47.222Z,47.50
2022-08-22T16:39:23.206Z,47.80
2022-08-22T16:41:51.475Z,48.10
2022-08-22T16:44:21.145Z,49.10
2022-08-22T16:46:51.170Z,48.50
2022-08-22T16:49:35.336Z,49.90
2022-08-22T16:52:21.122Z,49.50
2022-08-22T16:54:57.738Z,49.50
2022-08-22T16:57:33.359Z,51.50
2022-08-22T17:00:38.596Z,51.10
2022-08-22T17:03:32.323Z,52.30
2022-08-22T17:06:11.177Z,52.90
2022-08-22T17:09:01.437Z,53.00
2022-08-22T17:11:47.297Z,52.80
2022-08-22T17:14:47.577Z,54.30
2022-08-22T17:17:48.253Z,53.60
2022-08-22T17:20:17.881Z,53.60
2022-08-22T17:22:58.186Z,53.30
2022-08-22T17:25:36.922Z,53.30
2022-08-22T17:28:25.723Z,53.50
2022-08-22T17:31:14.540Z,54.20
2022-08-22T17:33:41.349Z,54.90
2022-08-22T17:36:31.308Z,54.40
2022-08-22T17:39:15.827Z,55.60
2022-08-22T17:41:45.623Z,55.30
2022-08-22T17:44:49.401Z,54.90
2022-08-22T17:47:25.498Z,56.00
2022-08-22T17:50:03.108Z,55.80
2022-08-22T17:52:43.030Z,56.60
2022-08-22T17:55:25.735Z,56.80
2022-08-22T17:57:58.988Z,58.60
2022-08-22T18:00:33.745Z,58.90
2022-08-22T18:03:15.127Z,58.30
2022-08-22T18:05:52.264Z,59.50
2022-08-22T18:08:38.078Z,59.90
2022-08-22T18:11:27.838Z,59.70
2022-08-22T18:13:58.454Z,60.10
2022-08-22T18:16:37.142Z,60.30
2022-08-22T18:19:36.749Z,60.40
2022-08-22T18:22:06.754Z,60.30
2022-08-22T18:24:59.827Z,60.70
2022-08-22T18:27:36.597Z,60.60
2022-08-22T18:30:19.859Z,60.60
2022-08-22T18:33:01.506Z,60.70
2022-08-22T18:35:43.757Z,60.90
2022-08-22T18:39:17.146Z,61.00
2022-08-22T18:41:51.467Z,61.00
2022-08-22T18:44:26.237Z,61.10
2022-08-22T18:46:55.557Z,61.30
2022-08-22T18:49:22.518Z,61.40
2022-08-22T18:52:15.112Z,61.50
2022-08-22T18:54:50.814Z,61.60
2022-08-22T18:57:57.504Z,61.70
2022-08-22T19:01:02.114Z,61.80
2022-08-22T19:03:39.475Z,61.80
2022-08-22T19:06:24.434Z,62.00
2022-08-22T19:09:18.531Z,62.20
2022-08-22T19:12:04.292Z,62.20
2022-08-22T19:14:53.006Z,62.40
2022-08-22T19:17:42.512Z,62.50
2022-08-22T19:20:38.951Z,62.60
2022-08-22T19:23:33.859Z,62.70
2022-08-22T19:26:23.203Z,62.80
2022-08-22T19:29:00.044Z,63.00
2022-08-22T19:31:36.001Z,63.10
2022-08-22T19:34:30.163Z,63.40
2022-08-22T19:37:30.820Z,63.50
2022-08-22T19:40:11.186Z,63.60
2022-08-22T19:42:43.484Z,63.80
2022-08-22T19:45:27.191Z,64.00
2022-08-22T19:47:59.755Z,64.20
2022-08-22T19:50:33.200Z,64.40
2022-08-22T19:53:15.590Z,64.70
2022-08-22T19:56:01.898Z,64.80
2022-08-22T19:58:51.846Z,65.10
2022-08-22T20:01:31.014Z,65.40
2022-08-22T20:04:29.943Z,65.80
2022-08-22T20:07:35.644Z,66.20
2022-08-22T20:10:23.692Z,66.80
2022-08-22T20:13:21.509Z,67.20
2022-08-22T20:16:43.116Z,67.60
2022-08-22T20:19:10.138Z,68.20
2022-08-22T20:21:50.072Z,68.70
2022-08-22T20:24:24.574Z,69.10
2022-08-22T20:27:12.636Z,70.00
2022-08-22T20:30:03.376Z,70.50
2022-08-22T20:32:33.388Z,71.20
2022-08-22T20:35:03.052Z,71.90
2022-08-22T20:38:04.777Z,72.40
2022-08-22T20:40:55.236Z,72.90
2022-08-22T20:43:28.411Z,73.50
2022-08-22T20:46:12.420Z,74.10
2022-08-22T20:48:44.705Z,74.60
2022-08-22T20:51:17.912Z,75.30
2022-08-22T20:53:53.295Z,75.80
2022-08-22T20:56:52.782Z,76.20
2022-08-22T20:59:31.793Z,76.40
2022-08-22T21:02:13.406Z,76.90
2022-08-22T21:04:52.836Z,77.30
2022-08-22T21:07:28.171Z,77.80
2022-08-22T21:10:22.880Z,78.40
2022-08-22T21:13:11.083Z,78.50
2022-08-22T21:15:41.995Z,78.80
2022-08-22T21:18:14.582Z,79.10
2022-08-22T21:20:41.918Z,79.40
2022-08-22T21:23:14.436Z,79.60
2022-08-22T21:26:05.387Z,79.90
2022-08-22T21:28:40.876Z,80.10
2022-08-22T21:31:20.708Z,80.10
2022-08-22T21:33:49.218Z,80.40
2022-08-22T21:36:20.481Z,80.30
2022-08-22T21:38:55.572Z,80.90
2022-08-22T21:41:41.412Z,80.90
2022-08-22T21:44:27.080Z,80.80
2022-08-22T21:46:55.511Z,80.90
2022-08-22T21:49:31.873Z,81.30
2022-08-22T21:51:58.787Z,81.30
2022-08-22T21:54:25.620Z,81.50
2022-08-22T21:56:55.120Z,81.60
2022-08-22T22:00:00.343Z,81.60
2022-08-22T22:02:37.164Z,81.80
2022-08-22T22:05:08.363Z,81.90
2022-08-22T22:07:40.206Z,82.10
2022-08-22T22:10:10.410Z,82.20
2022-08-22T22:12:46.346Z,82.40
2022-08-22T22:15:17.112Z,82.40
2022-08-22T22:17:44.328Z,82.40
2022-08-22T22:20:12.257Z,82.50
2022-08-22T22:22:45.958Z,82.60
2022-08-22T22:25:40.263Z,82.70
2022-08-22T22:28:11.119Z,82.80
2022-08-22T22:30:38.103Z,82.90
2022-08-22T22:33:05.188Z,82.90
2022-08-22T22:35:32.765Z,83.00
2022-08-22T22:37:59.920Z,83.10
2022-08-22T22:40:26.931Z,83.20
2022-08-22T22:42:53.890Z,83.30
2022-08-22T22:45:20.906Z,83.40
2022-08-22T22:47:47.865Z,83.60
2022-08-22T22:50:14.770Z,83.60
2022-08-22T22:52:41.975Z,83.70
2022-08-22T22:55:09.925Z,83.90
2022-08-22T22:57:41.311Z,83.90
2022-08-22T23:00:12.800Z,84.00
2022-08-22T23:02:39.997Z,84.10
2022-08-22T23:05:08.945Z,84.10
2022-08-22T23:07:37.468Z,84.20
2022-08-22T23:10:07.382Z,84.20
2022-08-22T23:12:36.133Z,84.30
2022-08-22T23:15:04.364Z,84.30
2022-08-22T23:17:31.678Z,84.30
2022-08-22T23:19:58.816Z,84.40
2022-08-22T23:22:26.092Z,84.30
2022-08-22T23:24:53.210Z,84.40
2022-08-22T23:27:20.103Z,84.50
2022-08-22T23:29:47.109Z,84.50
2022-08-22T23:32:14.476Z,84.50
2022-08-22T23:34:48.761Z,84.50
2022-08-22T23:37:18.873Z,84.60
2022-08-22T23:39:46.208Z,84.60
2022-08-22T23:42:14.389Z,84.60
2022-08-22T23:44:42.914Z,84.50
2022-08-22T23:47:10.254Z,84.50
2022-08-22T23:49:38.410Z,84.50
2022-08-22T23:52:07.700Z,84.50
2022-08-22T23:54:34.934Z,84.40
2022-08-22T23:57:11.974Z,84.50
2022-08-22T23:59:46.312Z,84.50
